Rathdrum, ID (83858)

12:13 AM PDT on September 02, 2014 (GMT -0700)
Coeur D'Alene | Change Station
CLOSE
Current Station
Airport
Location: Coeur d'Alene,
Elevation: 2320 ft
Nearby Weather Stations

Elev 2320 ft 47.77 °N, 116.82 °W | Updated 18 minutes ago

Clear
Clear
54 °F
Feels Like 54 °F
N
4
Wind Variable Wind from South

Today
High -- | Low -- °F
--% Chance of Precip.
Yesterday
High -- | Low -- °F
Precip. -- in
6:07 AM 7:26 PM
Waxing Crescent, 48% visible
Pressure 29.93 in
Visibility 10.0 miles
Clouds Clear
Dew Point 41 °F
Humidity 62%
Rainfall 0.00 in
Snow Depth Not available.
UV 0 out of 12
Pollen 6.50 out of 12
Air Quality Not available.
Flu Activity Not available.
METAR KCOE 020655Z AUTO 19003KT 10SM CLR 12/05 A2993 RMK AO1

More Conditions Fewer Conditions

Pressure 29.93 in
Visibility 10.0 miles
Clouds Clear
Dew Point 41 °F
Humidity 62%
Rainfall 0.00 in
Snow Depth Not available.
UV 0 out of 12
Pollen 6.50 out of 12
Air Quality Not available.
Flu Activity Not available.
METAR KCOE 020655Z AUTO 19003KT 10SM CLR 12/05 A2993 RMK AO1

More Conditions Fewer Conditions

10-Day Weather Forecast

Almanac

Astronomy

Sep. 02, 2014 Rise Set
Actual Time 6:07 AM PDT 7:26 PM PDT
Civil Twilight 5:35 AM PDT 7:58 PM PDT
Nautical Twilight 4:56 AM PDT 8:36 PM PDT
Astronomical Twilight 4:14 AM PDT 9:17 PM PDT
Moon 2:27 PM PDT 11:52 PM PDT
Length of Visible Light 14h 22m
Length of Day
13h 18m
Tomorrow will be 3m 21s shorter.
Waxing Crescent, 48% of the Moon is Illuminated
Today
Waxing Crescent
Sep 2
First Quarter
Sep 8
Full
Sep 15
Last Quarter
Sep 24
New

Today's Extremes

State Highs State Lows

Community

WunderPhotos

Upload Photos

1,749,589 photos uploaded!

WunderBlogs® & News

Nearby

Snow Depth

Station Depth Elevation
Mosquito Ridge 0 in 5200 ft
Schweitzer Basin 0 in 6090 ft
Bear Mountain 0 in 5400 ft
Sunset 0 in 5540 ft
Mica Creek 1 in 4750 ft

Earthquake Activity

City Distance Mag. Time & Date
No recent earthquake activity has been reported nearby.
Minimum magnitude displayed is 2.5.

Coastal Water Temperatures

Place Temperature
No Stations Reporting

Nearby Weather Stations